sensor_id;sensor_type;location;lat;lon;timestamp;P1;durP1;ratioP1;P2;durP2;ratioP2
49366;SDS011;35245;52.026;8.540;2023-02-28T00:00:34;14.70;;;6.28;;
49366;SDS011;35245;52.026;8.540;2023-02-28T00:03:02;13.70;;;6.95;;
49366;SDS011;35245;52.026;8.540;2023-02-28T00:05:29;11.95;;;6.65;;
49366;SDS011;35245;52.026;8.540;2023-02-28T00:07:56;14.48;;;6.80;;
49366;SDS011;35245;52.026;8.540;2023-02-28T00:10:23;14.50;;;7.45;;
49366;SDS011;35245;52.026;8.540;2023-02-28T00:12:52;14.50;;;7.47;;
49366;SDS011;35245;52.026;8.540;2023-02-28T00:15:23;12.60;;;7.00;;
49366;SDS011;35245;52.026;8.540;2023-02-28T00:17:50;12.93;;;6.03;;
49366;SDS011;35245;52.026;8.540;2023-02-28T00:20:17;12.05;;;6.35;;
49366;SDS011;35245;52.026;8.540;2023-02-28T00:22:45;11.13;;;6.00;;
49366;SDS011;35245;52.026;8.540;2023-02-28T00:25:15;12.20;;;5.88;;
49366;SDS011;35245;52.026;8.540;2023-02-28T00:27:43;10.25;;;5.68;;
49366;SDS011;35245;52.026;8.540;2023-02-28T00:30:11;10.10;;;5.65;;
49366;SDS011;35245;52.026;8.540;2023-02-28T00:32:41;12.18;;;5.13;;
49366;SDS011;35245;52.026;8.540;2023-02-28T00:35:08;8.93;;;4.95;;
49366;SDS011;35245;52.026;8.540;2023-02-28T00:37:36;10.73;;;4.85;;
49366;SDS011;35245;52.026;8.540;2023-02-28T00:40:04;9.93;;;5.57;;
49366;SDS011;35245;52.026;8.540;2023-02-28T00:42:32;10.90;;;4.88;;
49366;SDS011;35245;52.026;8.540;2023-02-28T00:45:00;9.13;;;5.05;;
49366;SDS011;35245;52.026;8.540;2023-02-28T00:47:28;11.32;;;5.72;;
49366;SDS011;35245;52.026;8.540;2023-02-28T00:49:57;9.68;;;6.13;;
49366;SDS011;35245;52.026;8.540;2023-02-28T00:52:24;13.95;;;6.65;;
49366;SDS011;35245;52.026;8.540;2023-02-28T00:54:51;12.23;;;6.03;;
49366;SDS011;35245;52.026;8.540;2023-02-28T00:57:18;12.07;;;6.13;;
49366;SDS011;35245;52.026;8.540;2023-02-28T00:59:45;12.68;;;6.07;;
49366;SDS011;35245;52.026;8.540;2023-02-28T01:02:12;9.85;;;5.78;;
49366;SDS011;35245;52.026;8.540;2023-02-28T01:04:39;14.73;;;6.07;;
49366;SDS011;35245;52.026;8.540;2023-02-28T01:07:07;12.82;;;6.78;;
49366;SDS011;35245;52.026;8.540;2023-02-28T01:09:34;11.93;;;6.80;;
49366;SDS011;35245;52.026;8.540;2023-02-28T01:12:01;12.43;;;6.97;;
49366;SDS011;35245;52.026;8.540;2023-02-28T01:14:28;16.38;;;6.45;;
49366;SDS011;35245;52.026;8.540;2023-02-28T01:16:55;10.77;;;6.00;;
49366;SDS011;35245;52.026;8.540;2023-02-28T01:19:22;11.25;;;6.32;;
49366;SDS011;35245;52.026;8.540;2023-02-28T01:21:49;11.60;;;6.57;;
49366;SDS011;35245;52.026;8.540;2023-02-28T01:24:17;14.07;;;7.13;;
49366;SDS011;35245;52.026;8.540;2023-02-28T01:26:44;10.18;;;5.85;;
49366;SDS011;35245;52.026;8.540;2023-02-28T01:29:11;12.32;;;6.05;;
49366;SDS011;35245;52.026;8.540;2023-02-28T01:31:38;10.77;;;5.63;;
49366;SDS011;35245;52.026;8.540;2023-02-28T01:34:05;11.88;;;6.45;;
49366;SDS011;35245;52.026;8.540;2023-02-28T01:36:32;10.52;;;5.70;;
49366;SDS011;35245;52.026;8.540;2023-02-28T01:38:59;10.52;;;5.60;;
49366;SDS011;35245;52.026;8.540;2023-02-28T01:41:28;9.30;;;5.40;;
49366;SDS011;35245;52.026;8.540;2023-02-28T01:43:58;9.75;;;5.35;;
49366;SDS011;35245;52.026;8.540;2023-02-28T01:48:57;11.60;;;6.47;;
49366;SDS011;35245;52.026;8.540;2023-02-28T01:51:28;12.68;;;6.20;;
49366;SDS011;35245;52.026;8.540;2023-02-28T01:53:59;10.95;;;6.10;;
49366;SDS011;35245;52.026;8.540;2023-02-28T01:56:29;9.00;;;5.43;;
49366;SDS011;35245;52.026;8.540;2023-02-28T01:58:59;9.07;;;5.53;;
49366;SDS011;35245;52.026;8.540;2023-02-28T02:01:27;10.88;;;5.60;;
49366;SDS011;35245;52.026;8.540;2023-02-28T02:03:55;14.02;;;6.75;;
49366;SDS011;35245;52.026;8.540;2023-02-28T02:06:23;9.10;;;5.32;;
49366;SDS011;35245;52.026;8.540;2023-02-28T02:08:52;10.30;;;6.18;;
49366;SDS011;35245;52.026;8.540;2023-02-28T02:11:20;13.43;;;6.82;;
49366;SDS011;35245;52.026;8.540;2023-02-28T02:13:53;10.32;;;6.15;;
49366;SDS011;35245;52.026;8.540;2023-02-28T02:16:37;12.48;;;7.03;;
49366;SDS011;35245;52.026;8.540;2023-02-28T02:19:14;12.85;;;6.90;;
49366;SDS011;35245;52.026;8.540;2023-02-28T02:22:00;12.65;;;6.32;;
49366;SDS011;35245;52.026;8.540;2023-02-28T02:24:58;12.30;;;5.47;;
49366;SDS011;35245;52.026;8.540;2023-02-28T02:27:46;15.30;;;7.00;;
49366;SDS011;35245;52.026;8.540;2023-02-28T02:30:36;11.88;;;6.63;;
49366;SDS011;35245;52.026;8.540;2023-02-28T02:33:26;10.15;;;6.10;;
49366;SDS011;35245;52.026;8.540;2023-02-28T02:36:03;16.20;;;6.38;;
49366;SDS011;35245;52.026;8.540;2023-02-28T02:38:33;10.70;;;6.10;;
49366;SDS011;35245;52.026;8.540;2023-02-28T02:41:04;15.43;;;6.25;;
49366;SDS011;35245;52.026;8.540;2023-02-28T02:43:38;12.48;;;6.18;;
49366;SDS011;35245;52.026;8.540;2023-02-28T02:46:10;9.82;;;5.60;;
49366;SDS011;35245;52.026;8.540;2023-02-28T02:48:41;10.07;;;5.85;;
49366;SDS011;35245;52.026;8.540;2023-02-28T02:51:12;11.93;;;6.00;;
49366;SDS011;35245;52.026;8.540;2023-02-28T02:53:41;9.52;;;6.18;;
49366;SDS011;35245;52.026;8.540;2023-02-28T02:56:11;11.80;;;7.17;;
49366;SDS011;35245;52.026;8.540;2023-02-28T02:58:40;11.18;;;6.00;;
49366;SDS011;35245;52.026;8.540;2023-02-28T03:01:10;12.73;;;6.63;;
49366;SDS011;35245;52.026;8.540;2023-02-28T03:03:38;11.45;;;5.70;;
49366;SDS011;35245;52.026;8.540;2023-02-28T03:06:05;11.18;;;6.25;;
49366;SDS011;35245;52.026;8.540;2023-02-28T03:08:35;12.18;;;6.47;;
49366;SDS011;35245;52.026;8.540;2023-02-28T03:11:03;13.25;;;6.35;;
49366;SDS011;35245;52.026;8.540;2023-02-28T03:19:45;12.38;;;6.22;;
49366;SDS011;35245;52.026;8.540;2023-02-28T03:22:31;11.32;;;6.22;;
49366;SDS011;35245;52.026;8.540;2023-02-28T03:25:13;11.88;;;6.63;;
49366;SDS011;35245;52.026;8.540;2023-02-28T03:27:46;18.05;;;7.22;;
49366;SDS011;35245;52.026;8.540;2023-02-28T03:30:22;13.10;;;7.05;;
49366;SDS011;35245;52.026;8.540;2023-02-28T03:32:53;11.77;;;6.45;;
49366;SDS011;35245;52.026;8.540;2023-02-28T03:35:22;16.38;;;7.18;;
49366;SDS011;35245;52.026;8.540;2023-02-28T03:37:52;14.30;;;6.68;;
49366;SDS011;35245;52.026;8.540;2023-02-28T03:40:23;12.73;;;7.13;;
49366;SDS011;35245;52.026;8.540;2023-02-28T03:42:54;15.38;;;7.43;;
49366;SDS011;35245;52.026;8.540;2023-02-28T03:45:25;15.60;;;7.28;;
49366;SDS011;35245;52.026;8.540;2023-02-28T03:47:54;14.63;;;7.55;;
49366;SDS011;35245;52.026;8.540;2023-02-28T03:50:23;14.80;;;7.43;;
49366;SDS011;35245;52.026;8.540;2023-02-28T03:52:53;13.48;;;7.13;;
49366;SDS011;35245;52.026;8.540;2023-02-28T03:55:27;13.95;;;6.90;;
49366;SDS011;35245;52.026;8.540;2023-02-28T03:57:56;12.65;;;7.40;;
49366;SDS011;35245;52.026;8.540;2023-02-28T04:00:27;15.38;;;7.35;;
49366;SDS011;35245;52.026;8.540;2023-02-28T04:02:56;15.15;;;8.13;;
49366;SDS011;35245;52.026;8.540;2023-02-28T04:05:23;14.40;;;8.15;;
49366;SDS011;35245;52.026;8.540;2023-02-28T04:07:50;12.60;;;7.57;;
49366;SDS011;35245;52.026;8.540;2023-02-28T04:10:18;13.43;;;7.43;;
49366;SDS011;35245;52.026;8.540;2023-02-28T04:12:46;14.07;;;7.90;;
49366;SDS011;35245;52.026;8.540;2023-02-28T04:15:13;15.65;;;9.00;;
49366;SDS011;35245;52.026;8.540;2023-02-28T04:17:40;15.65;;;8.30;;
49366;SDS011;35245;52.026;8.540;2023-02-28T04:20:07;13.98;;;8.10;;
49366;SDS011;35245;52.026;8.540;2023-02-28T04:22:35;15.48;;;8.65;;
49366;SDS011;35245;52.026;8.540;2023-02-28T04:25:03;14.70;;;8.25;;
49366;SDS011;35245;52.026;8.540;2023-02-28T04:27:31;15.05;;;8.27;;
49366;SDS011;35245;52.026;8.540;2023-02-28T04:30:00;12.77;;;7.32;;
49366;SDS011;35245;52.026;8.540;2023-02-28T04:32:26;14.15;;;8.55;;
49366;SDS011;35245;52.026;8.540;2023-02-28T04:34:53;17.95;;;8.95;;
49366;SDS011;35245;52.026;8.540;2023-02-28T04:37:20;14.18;;;8.18;;
49366;SDS011;35245;52.026;8.540;2023-02-28T04:39:52;13.13;;;8.45;;
49366;SDS011;35245;52.026;8.540;2023-02-28T04:42:19;16.67;;;8.45;;
49366;SDS011;35245;52.026;8.540;2023-02-28T04:44:46;16.88;;;8.20;;
49366;SDS011;35245;52.026;8.540;2023-02-28T04:47:15;17.77;;;9.32;;
49366;SDS011;35245;52.026;8.540;2023-02-28T04:49:41;16.38;;;8.15;;
49366;SDS011;35245;52.026;8.540;2023-02-28T04:52:08;14.75;;;7.68;;
49366;SDS011;35245;52.026;8.540;2023-02-28T04:54:36;14.77;;;7.85;;
49366;SDS011;35245;52.026;8.540;2023-02-28T04:57:04;13.98;;;7.40;;
49366;SDS011;35245;52.026;8.540;2023-02-28T04:59:31;11.93;;;6.65;;
49366;SDS011;35245;52.026;8.540;2023-02-28T05:01:58;13.57;;;6.78;;
49366;SDS011;35245;52.026;8.540;2023-02-28T05:04:27;11.55;;;6.88;;
49366;SDS011;35245;52.026;8.540;2023-02-28T05:06:53;15.82;;;6.85;;
49366;SDS011;35245;52.026;8.540;2023-02-28T05:09:21;16.25;;;6.88;;
49366;SDS011;35245;52.026;8.540;2023-02-28T05:11:48;14.65;;;7.18;;
49366;SDS011;35245;52.026;8.540;2023-02-28T05:14:15;12.35;;;6.90;;
49366;SDS011;35245;52.026;8.540;2023-02-28T05:16:42;12.45;;;6.90;;
49366;SDS011;35245;52.026;8.540;2023-02-28T05:19:09;13.05;;;7.50;;
49366;SDS011;35245;52.026;8.540;2023-02-28T05:21:37;13.45;;;6.93;;
49366;SDS011;35245;52.026;8.540;2023-02-28T05:24:06;13.35;;;7.10;;
49366;SDS011;35245;52.026;8.540;2023-02-28T05:26:35;15.50;;;7.97;;
49366;SDS011;35245;52.026;8.540;2023-02-28T05:29:04;15.30;;;7.47;;
49366;SDS011;35245;52.026;8.540;2023-02-28T05:31:31;14.45;;;7.45;;
49366;SDS011;35245;52.026;8.540;2023-02-28T05:33:58;14.13;;;7.18;;
49366;SDS011;35245;52.026;8.540;2023-02-28T05:36:25;10.00;;;6.53;;
49366;SDS011;35245;52.026;8.540;2023-02-28T05:38:53;11.85;;;6.90;;
49366;SDS011;35245;52.026;8.540;2023-02-28T05:41:20;18.75;;;6.60;;
49366;SDS011;35245;52.026;8.540;2023-02-28T05:43:47;14.80;;;6.60;;
49366;SDS011;35245;52.026;8.540;2023-02-28T05:46:14;12.32;;;6.32;;
49366;SDS011;35245;52.026;8.540;2023-02-28T05:48:42;17.15;;;6.85;;
49366;SDS011;35245;52.026;8.540;2023-02-28T05:51:12;16.77;;;7.07;;
49366;SDS011;35245;52.026;8.540;2023-02-28T05:53:38;13.27;;;6.40;;
49366;SDS011;35245;52.026;8.540;2023-02-28T05:56:07;14.95;;;6.78;;
49366;SDS011;35245;52.026;8.540;2023-02-28T05:58:34;12.80;;;6.57;;
49366;SDS011;35245;52.026;8.540;2023-02-28T06:01:18;20.50;;;7.93;;
49366;SDS011;35245;52.026;8.540;2023-02-28T06:03:47;12.85;;;7.85;;
49366;SDS011;35245;52.026;8.540;2023-02-28T06:06:13;15.57;;;7.68;;
49366;SDS011;35245;52.026;8.540;2023-02-28T06:08:40;13.43;;;7.15;;
49366;SDS011;35245;52.026;8.540;2023-02-28T06:11:11;19.30;;;7.82;;
49366;SDS011;35245;52.026;8.540;2023-02-28T06:13:38;14.57;;;8.30;;
49366;SDS011;35245;52.026;8.540;2023-02-28T06:16:05;14.73;;;7.70;;
49366;SDS011;35245;52.026;8.540;2023-02-28T06:18:32;12.85;;;7.60;;
49366;SDS011;35245;52.026;8.540;2023-02-28T06:20:59;15.30;;;7.15;;
49366;SDS011;35245;52.026;8.540;2023-02-28T06:23:26;16.60;;;8.60;;
49366;SDS011;35245;52.026;8.540;2023-02-28T06:25:53;14.20;;;7.35;;
49366;SDS011;35245;52.026;8.540;2023-02-28T06:28:24;19.20;;;7.57;;
49366;SDS011;35245;52.026;8.540;2023-02-28T06:30:51;13.70;;;7.40;;
49366;SDS011;35245;52.026;8.540;2023-02-28T06:33:19;12.63;;;8.27;;
49366;SDS011;35245;52.026;8.540;2023-02-28T06:35:46;14.57;;;7.85;;
49366;SDS011;35245;52.026;8.540;2023-02-28T06:38:13;14.30;;;6.90;;
49366;SDS011;35245;52.026;8.540;2023-02-28T06:40:40;17.95;;;7.97;;
49366;SDS011;35245;52.026;8.540;2023-02-28T06:43:07;12.93;;;7.45;;
49366;SDS011;35245;52.026;8.540;2023-02-28T06:45:38;13.27;;;6.85;;
49366;SDS011;35245;52.026;8.540;2023-02-28T06:48:08;14.95;;;7.55;;
49366;SDS011;35245;52.026;8.540;2023-02-28T06:50:35;14.77;;;7.43;;
49366;SDS011;35245;52.026;8.540;2023-02-28T06:53:02;12.20;;;7.00;;
49366;SDS011;35245;52.026;8.540;2023-02-28T06:55:29;13.48;;;7.00;;
49366;SDS011;35245;52.026;8.540;2023-02-28T06:57:56;10.23;;;6.28;;
49366;SDS011;35245;52.026;8.540;2023-02-28T07:00:23;14.00;;;6.97;;
49366;SDS011;35245;52.026;8.540;2023-02-28T07:02:52;24.60;;;8.25;;
49366;SDS011;35245;52.026;8.540;2023-02-28T07:05:20;23.83;;;8.27;;
49366;SDS011;35245;52.026;8.540;2023-02-28T07:07:47;16.90;;;7.80;;
49366;SDS011;35245;52.026;8.540;2023-02-28T07:10:14;17.85;;;7.38;;
49366;SDS011;35245;52.026;8.540;2023-02-28T07:12:42;13.23;;;8.23;;
49366;SDS011;35245;52.026;8.540;2023-02-28T07:15:09;13.40;;;7.80;;
49366;SDS011;35245;52.026;8.540;2023-02-28T07:17:36;17.35;;;8.02;;
49366;SDS011;35245;52.026;8.540;2023-02-28T07:20:05;27.65;;;7.45;;
49366;SDS011;35245;52.026;8.540;2023-02-28T07:22:33;17.20;;;7.55;;
49366;SDS011;35245;52.026;8.540;2023-02-28T07:25:00;13.70;;;7.35;;
49366;SDS011;35245;52.026;8.540;2023-02-28T07:27:27;14.68;;;7.32;;
49366;SDS011;35245;52.026;8.540;2023-02-28T07:29:54;15.65;;;8.18;;
49366;SDS011;35245;52.026;8.540;2023-02-28T07:32:21;18.92;;;8.30;;
49366;SDS011;35245;52.026;8.540;2023-02-28T07:34:48;17.88;;;8.63;;
49366;SDS011;35245;52.026;8.540;2023-02-28T07:37:17;16.15;;;9.07;;
49366;SDS011;35245;52.026;8.540;2023-02-28T07:39:44;16.33;;;9.18;;
49366;SDS011;35245;52.026;8.540;2023-02-28T07:42:11;17.45;;;9.45;;
49366;SDS011;35245;52.026;8.540;2023-02-28T07:44:38;21.63;;;11.15;;
49366;SDS011;35245;52.026;8.540;2023-02-28T07:47:06;22.77;;;11.68;;
49366;SDS011;35245;52.026;8.540;2023-02-28T07:49:34;19.98;;;10.05;;
49366;SDS011;35245;52.026;8.540;2023-02-28T07:52:01;16.75;;;8.50;;
49366;SDS011;35245;52.026;8.540;2023-02-28T07:54:30;19.30;;;8.25;;
49366;SDS011;35245;52.026;8.540;2023-02-28T07:56:57;17.83;;;8.57;;
49366;SDS011;35245;52.026;8.540;2023-02-28T07:59:24;19.95;;;9.65;;
49366;SDS011;35245;52.026;8.540;2023-02-28T08:01:51;15.75;;;7.95;;
49366;SDS011;35245;52.026;8.540;2023-02-28T08:04:18;11.13;;;7.13;;
49366;SDS011;35245;52.026;8.540;2023-02-28T08:06:45;12.90;;;7.70;;
49366;SDS011;35245;52.026;8.540;2023-02-28T08:09:12;12.73;;;6.72;;
49366;SDS011;35245;52.026;8.540;2023-02-28T08:11:41;15.20;;;6.72;;
49366;SDS011;35245;52.026;8.540;2023-02-28T08:14:08;16.02;;;6.75;;
49366;SDS011;35245;52.026;8.540;2023-02-28T08:16:35;12.98;;;6.82;;
49366;SDS011;35245;52.026;8.540;2023-02-28T08:19:02;13.93;;;7.65;;
49366;SDS011;35245;52.026;8.540;2023-02-28T08:21:29;15.43;;;5.97;;
49366;SDS011;35245;52.026;8.540;2023-02-28T08:23:56;12.98;;;6.38;;
49366;SDS011;35245;52.026;8.540;2023-02-28T08:26:23;11.38;;;6.10;;
49366;SDS011;35245;52.026;8.540;2023-02-28T08:28:51;13.30;;;6.57;;
49366;SDS011;35245;52.026;8.540;2023-02-28T08:31:18;11.50;;;6.20;;
49366;SDS011;35245;52.026;8.540;2023-02-28T08:33:45;12.93;;;6.50;;
49366;SDS011;35245;52.026;8.540;2023-02-28T08:36:13;11.98;;;6.22;;
49366;SDS011;35245;52.026;8.540;2023-02-28T08:38:41;11.57;;;5.78;;
49366;SDS011;35245;52.026;8.540;2023-02-28T08:41:09;14.63;;;5.47;;
49366;SDS011;35245;52.026;8.540;2023-02-28T08:43:37;9.32;;;5.22;;
49366;SDS011;35245;52.026;8.540;2023-02-28T08:46:06;10.48;;;5.35;;
49366;SDS011;35245;52.026;8.540;2023-02-28T08:48:34;9.32;;;5.00;;
49366;SDS011;35245;52.026;8.540;2023-02-28T08:51:04;9.70;;;5.50;;
49366;SDS011;35245;52.026;8.540;2023-02-28T08:53:32;14.38;;;5.30;;
49366;SDS011;35245;52.026;8.540;2023-02-28T08:55:59;8.55;;;4.53;;
49366;SDS011;35245;52.026;8.540;2023-02-28T08:58:27;10.10;;;5.15;;
49366;SDS011;35245;52.026;8.540;2023-02-28T09:00:55;8.95;;;4.97;;
49366;SDS011;35245;52.026;8.540;2023-02-28T09:03:23;9.88;;;5.00;;
49366;SDS011;35245;52.026;8.540;2023-02-28T09:05:52;7.00;;;3.45;;
49366;SDS011;35245;52.026;8.540;2023-02-28T09:08:23;8.45;;;3.75;;
49366;SDS011;35245;52.026;8.540;2023-02-28T09:10:51;7.65;;;3.55;;
49366;SDS011;35245;52.026;8.540;2023-02-28T09:13:18;6.82;;;3.60;;
49366;SDS011;35245;52.026;8.540;2023-02-28T09:15:45;8.18;;;3.50;;
49366;SDS011;35245;52.026;8.540;2023-02-28T09:18:12;7.82;;;3.10;;
49366;SDS011;35245;52.026;8.540;2023-02-28T09:20:41;5.82;;;2.90;;
49366;SDS011;35245;52.026;8.540;2023-02-28T09:23:09;9.98;;;4.22;;
49366;SDS011;35245;52.026;8.540;2023-02-28T09:25:36;5.68;;;2.78;;
49366;SDS011;35245;52.026;8.540;2023-02-28T09:28:04;6.15;;;3.03;;
49366;SDS011;35245;52.026;8.540;2023-02-28T09:30:30;6.50;;;3.20;;
49366;SDS011;35245;52.026;8.540;2023-02-28T09:32:57;5.28;;;3.03;;
49366;SDS011;35245;52.026;8.540;2023-02-28T09:35:24;5.75;;;3.03;;
49366;SDS011;35245;52.026;8.540;2023-02-28T09:37:54;5.50;;;2.90;;
49366;SDS011;35245;52.026;8.540;2023-02-28T09:40:21;6.93;;;3.47;;
49366;SDS011;35245;52.026;8.540;2023-02-28T09:42:51;7.85;;;2.72;;
49366;SDS011;35245;52.026;8.540;2023-02-28T09:45:22;6.95;;;2.92;;
49366;SDS011;35245;52.026;8.540;2023-02-28T09:47:51;6.50;;;3.30;;
49366;SDS011;35245;52.026;8.540;2023-02-28T09:50:22;8.23;;;3.28;;
49366;SDS011;35245;52.026;8.540;2023-02-28T09:52:56;9.23;;;3.50;;
49366;SDS011;35245;52.026;8.540;2023-02-28T09:55:25;10.40;;;3.50;;
49366;SDS011;35245;52.026;8.540;2023-02-28T09:57:55;11.40;;;4.72;;
49366;SDS011;35245;52.026;8.540;2023-02-28T10:00:27;5.78;;;3.25;;
49366;SDS011;35245;52.026;8.540;2023-02-28T10:03:06;9.77;;;2.90;;
49366;SDS011;35245;52.026;8.540;2023-02-28T10:05:41;5.43;;;3.08;;
49366;SDS011;35245;52.026;8.540;2023-02-28T10:08:13;5.93;;;2.75;;
49366;SDS011;35245;52.026;8.540;2023-02-28T10:10:42;4.05;;;2.50;;
49366;SDS011;35245;52.026;8.540;2023-02-28T10:13:15;5.38;;;2.55;;
49366;SDS011;35245;52.026;8.540;2023-02-28T10:15:47;11.35;;;3.08;;
49366;SDS011;35245;52.026;8.540;2023-02-28T10:18:19;5.45;;;2.20;;
49366;SDS011;35245;52.026;8.540;2023-02-28T10:20:51;7.75;;;2.75;;
49366;SDS011;35245;52.026;8.540;2023-02-28T10:23:21;7.68;;;1.85;;
49366;SDS011;35245;52.026;8.540;2023-02-28T10:25:59;4.00;;;1.90;;
49366;SDS011;35245;52.026;8.540;2023-02-28T10:28:28;4.60;;;2.28;;
49366;SDS011;35245;52.026;8.540;2023-02-28T10:30:57;5.15;;;1.63;;
49366;SDS011;35245;52.026;8.540;2023-02-28T10:33:27;4.18;;;1.50;;
49366;SDS011;35245;52.026;8.540;2023-02-28T10:35:56;5.85;;;1.58;;
49366;SDS011;35245;52.026;8.540;2023-02-28T10:38:25;4.47;;;1.33;;
49366;SDS011;35245;52.026;8.540;2023-02-28T10:41:03;7.28;;;2.63;;
49366;SDS011;35245;52.026;8.540;2023-02-28T10:43:31;2.28;;;1.50;;
49366;SDS011;35245;52.026;8.540;2023-02-28T10:45:59;3.67;;;1.52;;
49366;SDS011;35245;52.026;8.540;2023-02-28T10:48:34;3.72;;;1.50;;
49366;SDS011;35245;52.026;8.540;2023-02-28T10:51:04;5.95;;;3.47;;
49366;SDS011;35245;52.026;8.540;2023-02-28T10:53:34;6.38;;;1.20;;
49366;SDS011;35245;52.026;8.540;2023-02-28T10:56:05;3.92;;;1.30;;
49366;SDS011;35245;52.026;8.540;2023-02-28T10:58:45;2.80;;;1.00;;
49366;SDS011;35245;52.026;8.540;2023-02-28T11:01:18;3.63;;;1.10;;
49366;SDS011;35245;52.026;8.540;2023-02-28T11:03:46;11.98;;;2.08;;
49366;SDS011;35245;52.026;8.540;2023-02-28T11:06:16;3.25;;;1.60;;
49366;SDS011;35245;52.026;8.540;2023-02-28T11:08:47;5.57;;;1.30;;
49366;SDS011;35245;52.026;8.540;2023-02-28T11:13:43;2.88;;;1.15;;
49366;SDS011;35245;52.026;8.540;2023-02-28T11:16:12;2.10;;;1.38;;
49366;SDS011;35245;52.026;8.540;2023-02-28T11:18:41;2.88;;;1.00;;
49366;SDS011;35245;52.026;8.540;2023-02-28T11:21:15;5.55;;;1.45;;
49366;SDS011;35245;52.026;8.540;2023-02-28T11:23:43;6.07;;;2.00;;
49366;SDS011;35245;52.026;8.540;2023-02-28T11:26:34;3.35;;;1.33;;
49366;SDS011;35245;52.026;8.540;2023-02-28T11:29:03;5.20;;;2.28;;
49366;SDS011;35245;52.026;8.540;2023-02-28T11:31:37;3.80;;;1.50;;
49366;SDS011;35245;52.026;8.540;2023-02-28T11:34:11;3.70;;;1.80;;
49366;SDS011;35245;52.026;8.540;2023-02-28T11:36:49;2.95;;;1.30;;
49366;SDS011;35245;52.026;8.540;2023-02-28T11:39:18;2.35;;;1.30;;
49366;SDS011;35245;52.026;8.540;2023-02-28T11:41:52;2.47;;;1.02;;
49366;SDS011;35245;52.026;8.540;2023-02-28T11:44:30;4.25;;;1.45;;
49366;SDS011;35245;52.026;8.540;2023-02-28T11:47:04;2.17;;;1.50;;
49366;SDS011;35245;52.026;8.540;2023-02-28T11:49:37;4.30;;;1.50;;
49366;SDS011;35245;52.026;8.540;2023-02-28T11:52:14;4.32;;;1.50;;
49366;SDS011;35245;52.026;8.540;2023-02-28T11:54:59;6.28;;;1.70;;
49366;SDS011;35245;52.026;8.540;2023-02-28T11:57:42;1.77;;;1.25;;
49366;SDS011;35245;52.026;8.540;2023-02-28T12:00:38;3.33;;;1.40;;
49366;SDS011;35245;52.026;8.540;2023-02-28T12:03:16;3.72;;;1.48;;
49366;SDS011;35245;52.026;8.540;2023-02-28T12:05:50;7.85;;;4.72;;
49366;SDS011;35245;52.026;8.540;2023-02-28T12:08:24;2.97;;;1.52;;
49366;SDS011;35245;52.026;8.540;2023-02-28T12:10:59;8.30;;;4.38;;
49366;SDS011;35245;52.026;8.540;2023-02-28T12:13:33;2.58;;;1.55;;
49366;SDS011;35245;52.026;8.540;2023-02-28T12:16:14;4.40;;;1.65;;
49366;SDS011;35245;52.026;8.540;2023-02-28T12:19:12;4.55;;;2.38;;
49366;SDS011;35245;52.026;8.540;2023-02-28T12:21:47;3.63;;;1.80;;
49366;SDS011;35245;52.026;8.540;2023-02-28T12:24:31;3.70;;;1.88;;
49366;SDS011;35245;52.026;8.540;2023-02-28T12:27:14;4.85;;;2.10;;
49366;SDS011;35245;52.026;8.540;2023-02-28T12:29:46;3.17;;;1.60;;
49366;SDS011;35245;52.026;8.540;2023-02-28T12:32:16;2.70;;;1.58;;
49366;SDS011;35245;52.026;8.540;2023-02-28T12:34:47;3.05;;;1.35;;
49366;SDS011;35245;52.026;8.540;2023-02-28T12:37:21;2.93;;;1.80;;
49366;SDS011;35245;52.026;8.540;2023-02-28T12:39:51;3.63;;;1.95;;
49366;SDS011;35245;52.026;8.540;2023-02-28T12:42:24;4.53;;;1.38;;
49366;SDS011;35245;52.026;8.540;2023-02-28T12:44:56;3.10;;;2.05;;
49366;SDS011;35245;52.026;8.540;2023-02-28T12:47:25;2.80;;;1.63;;
49366;SDS011;35245;52.026;8.540;2023-02-28T12:49:53;5.10;;;2.88;;
49366;SDS011;35245;52.026;8.540;2023-02-28T12:52:25;3.05;;;1.83;;
49366;SDS011;35245;52.026;8.540;2023-02-28T12:54:59;3.50;;;1.80;;
49366;SDS011;35245;52.026;8.540;2023-02-28T13:00:00;2.63;;;1.60;;
49366;SDS011;35245;52.026;8.540;2023-02-28T13:05:29;4.10;;;2.05;;
49366;SDS011;35245;52.026;8.540;2023-02-28T13:10:40;4.85;;;1.80;;
49366;SDS011;35245;52.026;8.540;2023-02-28T13:13:13;5.30;;;2.13;;
49366;SDS011;35245;52.026;8.540;2023-02-28T13:15:57;21.38;;;3.55;;
49366;SDS011;35245;52.026;8.540;2023-02-28T13:18:33;5.47;;;2.13;;
49366;SDS011;35245;52.026;8.540;2023-02-28T13:21:02;5.65;;;2.38;;
49366;SDS011;35245;52.026;8.540;2023-02-28T13:23:39;3.35;;;1.63;;
49366;SDS011;35245;52.026;8.540;2023-02-28T13:26:22;5.05;;;2.10;;
49366;SDS011;35245;52.026;8.540;2023-02-28T13:44:05;6.18;;;2.95;;
49366;SDS011;35245;52.026;8.540;2023-02-28T13:46:34;3.47;;;2.00;;
49366;SDS011;35245;52.026;8.540;2023-02-28T13:49:23;7.20;;;3.70;;
49366;SDS011;35245;52.026;8.540;2023-02-28T13:51:51;3.38;;;2.10;;
49366;SDS011;35245;52.026;8.540;2023-02-28T13:54:22;3.72;;;2.67;;
49366;SDS011;35245;52.026;8.540;2023-02-28T13:56:57;7.20;;;3.55;;
49366;SDS011;35245;52.026;8.540;2023-02-28T13:59:34;5.03;;;1.98;;
49366;SDS011;35245;52.026;8.540;2023-02-28T14:05:05;5.57;;;2.50;;
49366;SDS011;35245;52.026;8.540;2023-02-28T14:07:33;4.93;;;2.42;;
49366;SDS011;35245;52.026;8.540;2023-02-28T14:10:05;6.70;;;2.55;;
49366;SDS011;35245;52.026;8.540;2023-02-28T14:12:53;4.70;;;2.30;;
49366;SDS011;35245;52.026;8.540;2023-02-28T14:18:18;6.07;;;2.40;;
49366;SDS011;35245;52.026;8.540;2023-02-28T14:20:52;6.28;;;2.50;;
49366;SDS011;35245;52.026;8.540;2023-02-28T14:23:26;5.75;;;2.70;;
49366;SDS011;35245;52.026;8.540;2023-02-28T14:26:02;3.97;;;2.22;;
49366;SDS011;35245;52.026;8.540;2023-02-28T14:28:37;6.03;;;2.88;;
49366;SDS011;35245;52.026;8.540;2023-02-28T14:31:13;3.53;;;2.40;;
49366;SDS011;35245;52.026;8.540;2023-02-28T14:33:48;5.45;;;2.75;;
49366;SDS011;35245;52.026;8.540;2023-02-28T14:36:30;4.55;;;2.22;;
49366;SDS011;35245;52.026;8.540;2023-02-28T14:38:59;6.75;;;2.50;;
49366;SDS011;35245;52.026;8.540;2023-02-28T14:41:29;4.35;;;2.38;;
49366;SDS011;35245;52.026;8.540;2023-02-28T14:44:00;6.38;;;2.63;;
49366;SDS011;35245;52.026;8.540;2023-02-28T14:46:30;7.32;;;2.28;;
49366;SDS011;35245;52.026;8.540;2023-02-28T14:49:02;7.30;;;2.72;;
49366;SDS011;35245;52.026;8.540;2023-02-28T14:51:31;6.72;;;2.15;;
49366;SDS011;35245;52.026;8.540;2023-02-28T14:53:59;6.45;;;2.30;;
49366;SDS011;35245;52.026;8.540;2023-02-28T14:56:28;5.25;;;2.30;;
49366;SDS011;35245;52.026;8.540;2023-02-28T14:58:59;6.38;;;2.60;;
49366;SDS011;35245;52.026;8.540;2023-02-28T15:01:26;3.60;;;2.20;;
49366;SDS011;35245;52.026;8.540;2023-02-28T15:03:57;5.38;;;2.28;;
49366;SDS011;35245;52.026;8.540;2023-02-28T15:06:26;6.30;;;3.05;;
49366;SDS011;35245;52.026;8.540;2023-02-28T15:09:07;10.93;;;2.67;;
49366;SDS011;35245;52.026;8.540;2023-02-28T15:11:36;6.75;;;2.38;;
49366;SDS011;35245;52.026;8.540;2023-02-28T15:14:05;6.28;;;2.35;;
49366;SDS011;35245;52.026;8.540;2023-02-28T15:16:32;6.97;;;2.10;;
49366;SDS011;35245;52.026;8.540;2023-02-28T15:19:03;5.82;;;2.60;;
49366;SDS011;35245;52.026;8.540;2023-02-28T15:21:32;3.88;;;2.20;;
49366;SDS011;35245;52.026;8.540;2023-02-28T15:24:03;5.22;;;2.20;;
49366;SDS011;35245;52.026;8.540;2023-02-28T15:26:33;5.72;;;2.15;;
49366;SDS011;35245;52.026;8.540;2023-02-28T15:29:04;5.80;;;2.35;;
49366;SDS011;35245;52.026;8.540;2023-02-28T15:31:33;4.73;;;2.50;;
49366;SDS011;35245;52.026;8.540;2023-02-28T15:34:03;9.55;;;2.95;;
49366;SDS011;35245;52.026;8.540;2023-02-28T15:36:32;4.68;;;2.40;;
49366;SDS011;35245;52.026;8.540;2023-02-28T15:39:02;4.53;;;2.17;;